Pagina principale
METAR-TAF:

METAR-TAF

Aeroporti :

Dobbiaco, Italia

latitudine: 46-44N, longitudine: 012-13E, altezza: 1222 m

Osservazione

Il bollettino è stato emesso 31 minuti fa, alle 23:55 UTC
Vento 2 kt da direzioni variabili
Temperature 16°C
Umidità 82%
Pressione 1026 hPa

METAR: LIVD 192355Z AUTO VRB02KT //// 16/13 Q1026

Ora: 02:26 (00:26 UTC)


TAF: mancante

Osservazioni e previsioni meteorologiche di più di 4000 aeroporti (messaggi METAR e TAF).

Le stazioni disponibili sono rappresentate dai dischi gialli e rossi sulla carta.

Puntare il mouse per vedere il nome della stazione.

Clicca sopra per visualizzare le osservazioni e previsioni meteorologiche.

Per cambiare la mappa : fare clic sui pulsanti verdi con una croce nera per ingrandire, il pulsante verde con un trattino per diminuire, o sulla freccia verde per le mappe adiacenti.


METAR-TAF: